Etusivu
METAR-TAF:

METAR-TAF

Lentoasemat :

Polokwane, Etelä-Afrikka

Leveyspiiri: 23-50-43S, Pituuspiiri: 29-27-31E, korkeus merenpinnasta: 1242 m

Tämänhetkinen sää

Tämä raportti tehtiin 1 tunti ja 7 minuuttia sitten, kello 09.00 UTC
Tuuli 4 kn lännestä
Lämpötila 25°C
Kosteus 36%
Ilmanpaine 1020 hPa
Näkyvyys 10 km tai enemmän
Muutamia pilviä 3500 ft:n korkeudessa

METAR: FAPP 260900Z 27004KT 9999 FEW035 25/09 Q1020 NOSIG

Aika: 12:07 (10:07 UTC)

Sääennuste

Tämä raportti tehtiin 1 tunti ja 7 minuuttia sitten, kello 09.00 UTC
Ennuste voimassa 26. päivästä klo 10 UTC - 26. päivään klo 18 UTC
Tuuli 6 kn lännestä
Näkyvyys 10 km tai enemmän
ei pilviä alle 1500 m:ssä eikä cumulonimbus-pilviä
Tulossa
26. päivästä klo 14 UTC - 26. päivään klo 16 UTC
Tuuli 7 kn etelästä/lounaasta

TAF: FAPP 260900Z 2610/2618 27006KT CAVOK TX30/2613Z TN19/2618Z BECMG 2614/2616 20007KT

Säähavainnot ja -ennusteet yli 4000 lentoasemalta (METAR- ja TAF-raportit).

Käytössä olevat sääasemat on merkitty karttaan keltaisilla ja punaisilla pisteillä.

Aseta hiiri pisteen päälle nähdäksesi sääaseman nimen.

Klikkaa sitten nähdäksesi säähavainnot ja -ennusteet.

Kartan vaihtaminen: klikkaa mustalla rastilla varustettuja vihreitä pisteitä, niin voit zoomata sisään; viivalla varustettua vihreää pistettä, niin voit zoomata ulos tai vihreitä nuolia, niin pääset viereisille kartoille.


METAR-TAF: